sensor_id;sensor_type;location;lat;lon;timestamp;P1;durP1;ratioP1;P2;durP2;ratioP2
15528;SDS011;7866;52.280;9.500;2023-02-01T00:02:57;15.47;;;3.60;;
15528;SDS011;7866;52.280;9.500;2023-02-01T00:07:59;11.50;;;3.73;;
15528;SDS011;7866;52.280;9.500;2023-02-01T00:13:00;15.33;;;3.37;;
15528;SDS011;7866;52.280;9.500;2023-02-01T00:18:04;16.50;;;3.70;;
15528;SDS011;7866;52.280;9.500;2023-02-01T00:23:05;14.03;;;3.77;;
15528;SDS011;7866;52.280;9.500;2023-02-01T00:28:08;13.87;;;3.67;;
15528;SDS011;7866;52.280;9.500;2023-02-01T00:33:11;15.80;;;4.10;;
15528;SDS011;7866;52.280;9.500;2023-02-01T00:38:13;13.03;;;3.80;;
15528;SDS011;7866;52.280;9.500;2023-02-01T00:43:14;18.27;;;3.90;;
15528;SDS011;7866;52.280;9.500;2023-02-01T00:48:17;13.77;;;3.93;;
15528;SDS011;7866;52.280;9.500;2023-02-01T00:53:19;16.57;;;3.97;;
15528;SDS011;7866;52.280;9.500;2023-02-01T00:58:21;16.87;;;3.60;;
15528;SDS011;7866;52.280;9.500;2023-02-01T01:03:25;14.00;;;3.43;;
15528;SDS011;7866;52.280;9.500;2023-02-01T01:08:26;18.57;;;3.23;;
15528;SDS011;7866;52.280;9.500;2023-02-01T01:13:28;12.60;;;3.53;;
15528;SDS011;7866;52.280;9.500;2023-02-01T01:18:31;12.27;;;3.67;;
15528;SDS011;7866;52.280;9.500;2023-02-01T01:23:33;17.33;;;3.60;;
15528;SDS011;7866;52.280;9.500;2023-02-01T01:28:35;11.50;;;3.70;;
15528;SDS011;7866;52.280;9.500;2023-02-01T01:33:38;11.23;;;3.20;;
15528;SDS011;7866;52.280;9.500;2023-02-01T01:38:40;18.50;;;3.90;;
15528;SDS011;7866;52.280;9.500;2023-02-01T01:43:46;13.93;;;3.30;;
15528;SDS011;7866;52.280;9.500;2023-02-01T01:48:51;14.37;;;3.90;;
15528;SDS011;7866;52.280;9.500;2023-02-01T01:53:59;14.80;;;3.60;;
15528;SDS011;7866;52.280;9.500;2023-02-01T01:59:06;11.47;;;3.43;;
15528;SDS011;7866;52.280;9.500;2023-02-01T02:04:10;14.57;;;2.77;;
15528;SDS011;7866;52.280;9.500;2023-02-01T02:09:12;16.80;;;4.10;;
15528;SDS011;7866;52.280;9.500;2023-02-01T02:14:14;16.13;;;3.50;;
15528;SDS011;7866;52.280;9.500;2023-02-01T02:25:19;13.63;;;3.60;;
15528;SDS011;7866;52.280;9.500;2023-02-01T02:30:41;9.67;;;3.30;;
15528;SDS011;7866;52.280;9.500;2023-02-01T02:36:05;14.57;;;3.60;;
15528;SDS011;7866;52.280;9.500;2023-02-01T02:41:12;9.33;;;3.43;;
15528;SDS011;7866;52.280;9.500;2023-02-01T02:46:38;10.67;;;3.23;;
15528;SDS011;7866;52.280;9.500;2023-02-01T02:52:08;11.23;;;3.40;;
15528;SDS011;7866;52.280;9.500;2023-02-01T02:57:32;13.27;;;3.23;;
15528;SDS011;7866;52.280;9.500;2023-02-01T03:02:55;14.10;;;4.10;;
15528;SDS011;7866;52.280;9.500;2023-02-01T03:08:16;13.03;;;3.23;;
15528;SDS011;7866;52.280;9.500;2023-02-01T03:13:22;15.40;;;3.60;;
15528;SDS011;7866;52.280;9.500;2023-02-01T03:18:30;12.70;;;3.83;;
15528;SDS011;7866;52.280;9.500;2023-02-01T03:23:38;13.17;;;3.77;;
15528;SDS011;7866;52.280;9.500;2023-02-01T03:28:41;13.07;;;3.87;;
15528;SDS011;7866;52.280;9.500;2023-02-01T03:33:46;15.07;;;3.90;;
15528;SDS011;7866;52.280;9.500;2023-02-01T03:38:52;14.43;;;3.40;;
15528;SDS011;7866;52.280;9.500;2023-02-01T03:44:01;16.47;;;3.80;;
15528;SDS011;7866;52.280;9.500;2023-02-01T03:49:09;12.43;;;3.40;;
15528;SDS011;7866;52.280;9.500;2023-02-01T03:54:22;12.37;;;3.60;;
15528;SDS011;7866;52.280;9.500;2023-02-01T03:59:26;14.13;;;4.30;;
15528;SDS011;7866;52.280;9.500;2023-02-01T04:04:28;13.90;;;3.67;;
15528;SDS011;7866;52.280;9.500;2023-02-01T04:09:31;14.27;;;4.20;;
15528;SDS011;7866;52.280;9.500;2023-02-01T04:14:33;14.73;;;4.00;;
15528;SDS011;7866;52.280;9.500;2023-02-01T04:19:34;15.23;;;3.33;;
15528;SDS011;7866;52.280;9.500;2023-02-01T04:24:37;13.90;;;3.77;;
15528;SDS011;7866;52.280;9.500;2023-02-01T04:29:39;13.70;;;3.40;;
15528;SDS011;7866;52.280;9.500;2023-02-01T04:34:41;13.90;;;3.50;;
15528;SDS011;7866;52.280;9.500;2023-02-01T04:39:44;15.53;;;3.90;;
15528;SDS011;7866;52.280;9.500;2023-02-01T04:44:46;14.27;;;3.90;;
15528;SDS011;7866;52.280;9.500;2023-02-01T04:49:47;14.37;;;3.80;;
15528;SDS011;7866;52.280;9.500;2023-02-01T04:54:50;12.03;;;3.73;;
15528;SDS011;7866;52.280;9.500;2023-02-01T04:59:54;14.60;;;3.80;;
15528;SDS011;7866;52.280;9.500;2023-02-01T05:04:55;15.60;;;3.70;;
15528;SDS011;7866;52.280;9.500;2023-02-01T05:09:58;13.23;;;4.13;;
15528;SDS011;7866;52.280;9.500;2023-02-01T05:15:00;9.77;;;3.50;;
15528;SDS011;7866;52.280;9.500;2023-02-01T05:20:02;14.53;;;4.23;;
15528;SDS011;7866;52.280;9.500;2023-02-01T05:25:05;15.77;;;4.20;;
15528;SDS011;7866;52.280;9.500;2023-02-01T05:30:08;13.77;;;4.20;;
15528;SDS011;7866;52.280;9.500;2023-02-01T05:35:10;13.63;;;3.80;;
15528;SDS011;7866;52.280;9.500;2023-02-01T05:40:13;12.33;;;3.53;;
15528;SDS011;7866;52.280;9.500;2023-02-01T05:45:15;12.27;;;3.40;;
15528;SDS011;7866;52.280;9.500;2023-02-01T05:50:17;11.07;;;3.40;;
15528;SDS011;7866;52.280;9.500;2023-02-01T05:55:20;13.87;;;3.93;;
15528;SDS011;7866;52.280;9.500;2023-02-01T06:00:22;9.43;;;3.20;;
15528;SDS011;7866;52.280;9.500;2023-02-01T06:05:26;8.70;;;3.10;;
15528;SDS011;7866;52.280;9.500;2023-02-01T06:10:29;8.40;;;3.07;;
15528;SDS011;7866;52.280;9.500;2023-02-01T06:15:31;8.77;;;2.97;;
15528;SDS011;7866;52.280;9.500;2023-02-01T06:20:33;5.90;;;2.67;;
15528;SDS011;7866;52.280;9.500;2023-02-01T06:25:36;8.93;;;3.30;;
15528;SDS011;7866;52.280;9.500;2023-02-01T06:30:38;8.77;;;2.97;;
15528;SDS011;7866;52.280;9.500;2023-02-01T06:35:41;10.97;;;3.33;;
15528;SDS011;7866;52.280;9.500;2023-02-01T06:40:45;8.30;;;2.90;;
15528;SDS011;7866;52.280;9.500;2023-02-01T06:45:53;10.27;;;4.13;;
15528;SDS011;7866;52.280;9.500;2023-02-01T06:51:01;11.97;;;3.23;;
15528;SDS011;7866;52.280;9.500;2023-02-01T06:56:04;9.87;;;3.10;;
15528;SDS011;7866;52.280;9.500;2023-02-01T07:01:06;12.67;;;3.20;;
15528;SDS011;7866;52.280;9.500;2023-02-01T07:06:10;11.97;;;3.40;;
15528;SDS011;7866;52.280;9.500;2023-02-01T07:11:13;12.23;;;3.13;;
15528;SDS011;7866;52.280;9.500;2023-02-01T07:16:16;12.20;;;3.40;;
15528;SDS011;7866;52.280;9.500;2023-02-01T07:21:19;11.47;;;3.80;;
15528;SDS011;7866;52.280;9.500;2023-02-01T07:26:23;12.37;;;3.47;;
15528;SDS011;7866;52.280;9.500;2023-02-01T07:31:25;14.60;;;3.63;;
15528;SDS011;7866;52.280;9.500;2023-02-01T07:36:29;15.30;;;3.63;;
15528;SDS011;7866;52.280;9.500;2023-02-01T07:41:32;12.37;;;3.53;;
15528;SDS011;7866;52.280;9.500;2023-02-01T07:46:33;15.93;;;3.53;;
15528;SDS011;7866;52.280;9.500;2023-02-01T07:51:36;14.77;;;3.40;;
15528;SDS011;7866;52.280;9.500;2023-02-01T07:56:39;11.67;;;3.10;;
15528;SDS011;7866;52.280;9.500;2023-02-01T08:01:40;11.83;;;3.37;;
15528;SDS011;7866;52.280;9.500;2023-02-01T08:06:42;11.20;;;3.53;;
15528;SDS011;7866;52.280;9.500;2023-02-01T08:11:45;9.90;;;3.13;;
15528;SDS011;7866;52.280;9.500;2023-02-01T08:16:47;9.00;;;2.97;;
15528;SDS011;7866;52.280;9.500;2023-02-01T08:21:48;12.80;;;3.50;;
15528;SDS011;7866;52.280;9.500;2023-02-01T08:26:51;13.87;;;3.30;;
15528;SDS011;7866;52.280;9.500;2023-02-01T08:31:53;10.33;;;3.33;;
15528;SDS011;7866;52.280;9.500;2023-02-01T08:36:55;13.17;;;3.27;;
15528;SDS011;7866;52.280;9.500;2023-02-01T08:42:01;13.10;;;3.00;;
15528;SDS011;7866;52.280;9.500;2023-02-01T08:47:20;15.73;;;3.00;;
15528;SDS011;7866;52.280;9.500;2023-02-01T08:52:22;12.13;;;3.27;;
15528;SDS011;7866;52.280;9.500;2023-02-01T08:57:25;11.73;;;3.03;;
15528;SDS011;7866;52.280;9.500;2023-02-01T09:02:27;11.33;;;3.10;;
15528;SDS011;7866;52.280;9.500;2023-02-01T09:07:28;11.07;;;3.33;;
15528;SDS011;7866;52.280;9.500;2023-02-01T09:12:32;12.00;;;2.70;;
15528;SDS011;7866;52.280;9.500;2023-02-01T09:17:35;11.03;;;2.97;;
15528;SDS011;7866;52.280;9.500;2023-02-01T09:22:36;9.23;;;3.00;;
15528;SDS011;7866;52.280;9.500;2023-02-01T09:27:39;10.60;;;3.03;;
15528;SDS011;7866;52.280;9.500;2023-02-01T09:32:41;10.97;;;2.77;;
15528;SDS011;7866;52.280;9.500;2023-02-01T09:37:42;12.30;;;3.20;;
15528;SDS011;7866;52.280;9.500;2023-02-01T09:43:03;12.00;;;3.30;;
15528;SDS011;7866;52.280;9.500;2023-02-01T09:48:14;11.13;;;3.17;;
15528;SDS011;7866;52.280;9.500;2023-02-01T09:53:20;9.40;;;2.70;;
15528;SDS011;7866;52.280;9.500;2023-02-01T09:58:29;7.73;;;2.90;;
15528;SDS011;7866;52.280;9.500;2023-02-01T10:03:35;10.70;;;3.20;;
15528;SDS011;7866;52.280;9.500;2023-02-01T10:08:40;13.70;;;3.50;;
15528;SDS011;7866;52.280;9.500;2023-02-01T10:13:59;10.00;;;2.80;;
15528;SDS011;7866;52.280;9.500;2023-02-01T10:19:15;13.93;;;3.33;;
15528;SDS011;7866;52.280;9.500;2023-02-01T10:29:49;9.80;;;3.10;;
15528;SDS011;7866;52.280;9.500;2023-02-01T10:34:57;14.10;;;3.37;;
15528;SDS011;7866;52.280;9.500;2023-02-01T10:40:00;12.93;;;3.23;;
15528;SDS011;7866;52.280;9.500;2023-02-01T10:45:15;13.00;;;3.00;;
15528;SDS011;7866;52.280;9.500;2023-02-01T10:50:24;11.33;;;2.70;;
15528;SDS011;7866;52.280;9.500;2023-02-01T10:55:36;15.63;;;3.50;;
15528;SDS011;7866;52.280;9.500;2023-02-01T11:00:46;13.67;;;2.87;;
15528;SDS011;7866;52.280;9.500;2023-02-01T11:05:49;8.93;;;2.93;;
15528;SDS011;7866;52.280;9.500;2023-02-01T11:10:56;10.23;;;3.33;;
15528;SDS011;7866;52.280;9.500;2023-02-01T11:16:01;11.70;;;2.90;;
15528;SDS011;7866;52.280;9.500;2023-02-01T11:21:04;13.40;;;3.23;;
15528;SDS011;7866;52.280;9.500;2023-02-01T11:26:10;9.47;;;2.80;;
15528;SDS011;7866;52.280;9.500;2023-02-01T11:31:16;10.37;;;3.03;;
15528;SDS011;7866;52.280;9.500;2023-02-01T11:36:18;9.67;;;3.00;;
15528;SDS011;7866;52.280;9.500;2023-02-01T11:41:25;7.90;;;2.53;;
15528;SDS011;7866;52.280;9.500;2023-02-01T11:46:30;7.63;;;2.87;;
15528;SDS011;7866;52.280;9.500;2023-02-01T11:51:37;11.33;;;3.70;;
15528;SDS011;7866;52.280;9.500;2023-02-01T11:56:49;8.17;;;2.83;;
15528;SDS011;7866;52.280;9.500;2023-02-01T12:02:07;12.13;;;3.27;;
15528;SDS011;7866;52.280;9.500;2023-02-01T12:07:38;13.83;;;3.83;;
15528;SDS011;7866;52.280;9.500;2023-02-01T12:12:58;12.50;;;3.10;;
15528;SDS011;7866;52.280;9.500;2023-02-01T12:18:17;9.23;;;3.23;;
15528;SDS011;7866;52.280;9.500;2023-02-01T12:23:46;10.87;;;3.00;;
15528;SDS011;7866;52.280;9.500;2023-02-01T12:29:03;9.20;;;3.20;;
15528;SDS011;7866;52.280;9.500;2023-02-01T12:34:20;8.80;;;3.00;;
15528;SDS011;7866;52.280;9.500;2023-02-01T12:39:32;7.97;;;2.57;;
15528;SDS011;7866;52.280;9.500;2023-02-01T12:44:41;10.90;;;2.80;;
15528;SDS011;7866;52.280;9.500;2023-02-01T12:49:50;10.27;;;2.53;;
15528;SDS011;7866;52.280;9.500;2023-02-01T12:54:57;9.10;;;2.40;;
15528;SDS011;7866;52.280;9.500;2023-02-01T13:00:06;5.50;;;2.33;;
15528;SDS011;7866;52.280;9.500;2023-02-01T13:05:19;6.17;;;2.30;;
15528;SDS011;7866;52.280;9.500;2023-02-01T13:10:25;5.70;;;2.37;;
15528;SDS011;7866;52.280;9.500;2023-02-01T13:15:36;3.90;;;1.93;;
15528;SDS011;7866;52.280;9.500;2023-02-01T13:20:45;4.30;;;1.90;;
15528;SDS011;7866;52.280;9.500;2023-02-01T13:25:51;7.47;;;2.10;;
15528;SDS011;7866;52.280;9.500;2023-02-01T13:30:59;5.30;;;1.87;;
15528;SDS011;7866;52.280;9.500;2023-02-01T13:36:22;8.33;;;2.20;;
15528;SDS011;7866;52.280;9.500;2023-02-01T13:41:51;5.27;;;1.97;;
15528;SDS011;7866;52.280;9.500;2023-02-01T13:46:56;5.17;;;2.23;;
15528;SDS011;7866;52.280;9.500;2023-02-01T13:52:04;1.43;;;1.17;;
15528;SDS011;7866;52.280;9.500;2023-02-01T13:57:12;1.10;;;1.10;;
15528;SDS011;7866;52.280;9.500;2023-02-01T14:08:22;0.60;;;0.33;;
15528;SDS011;7866;52.280;9.500;2023-02-01T14:13:37;0.30;;;0.30;;
15528;SDS011;7866;52.280;9.500;2023-02-01T14:18:54;0.23;;;0.20;;
15528;SDS011;7866;52.280;9.500;2023-02-01T14:24:01;1.00;;;1.00;;
15528;SDS011;7866;52.280;9.500;2023-02-01T14:29:10;1.50;;;0.53;;
15528;SDS011;7866;52.280;9.500;2023-02-01T14:34:25;1.90;;;0.70;;
15528;SDS011;7866;52.280;9.500;2023-02-01T14:39:35;2.13;;;1.93;;
15528;SDS011;7866;52.280;9.500;2023-02-01T14:44:51;2.37;;;1.30;;
15528;SDS011;7866;52.280;9.500;2023-02-01T14:49:55;1.87;;;1.00;;
15528;SDS011;7866;52.280;9.500;2023-02-01T14:55:03;1.10;;;0.80;;
15528;SDS011;7866;52.280;9.500;2023-02-01T15:00:14;1.20;;;0.70;;
15528;SDS011;7866;52.280;9.500;2023-02-01T15:05:25;4.77;;;1.50;;
15528;SDS011;7866;52.280;9.500;2023-02-01T15:10:40;3.80;;;1.63;;
15528;SDS011;7866;52.280;9.500;2023-02-01T15:15:45;4.30;;;1.43;;
15528;SDS011;7866;52.280;9.500;2023-02-01T15:21:01;4.13;;;1.47;;
15528;SDS011;7866;52.280;9.500;2023-02-01T15:26:06;4.13;;;1.60;;
15528;SDS011;7866;52.280;9.500;2023-02-01T15:31:08;2.80;;;1.70;;
15528;SDS011;7866;52.280;9.500;2023-02-01T15:36:11;3.87;;;1.80;;
15528;SDS011;7866;52.280;9.500;2023-02-01T15:41:20;4.97;;;1.77;;
15528;SDS011;7866;52.280;9.500;2023-02-01T15:46:24;7.30;;;2.30;;
15528;SDS011;7866;52.280;9.500;2023-02-01T15:51:33;5.10;;;1.80;;
15528;SDS011;7866;52.280;9.500;2023-02-01T15:56:36;7.63;;;1.97;;
15528;SDS011;7866;52.280;9.500;2023-02-01T16:01:42;5.67;;;2.00;;
15528;SDS011;7866;52.280;9.500;2023-02-01T16:06:48;5.80;;;2.07;;
15528;SDS011;7866;52.280;9.500;2023-02-01T16:11:54;6.80;;;2.20;;
15528;SDS011;7866;52.280;9.500;2023-02-01T16:16:57;6.30;;;2.30;;
15528;SDS011;7866;52.280;9.500;2023-02-01T16:21:59;4.80;;;1.57;;
15528;SDS011;7866;52.280;9.500;2023-02-01T16:27:02;8.27;;;2.00;;
15528;SDS011;7866;52.280;9.500;2023-02-01T16:32:05;10.13;;;2.20;;
15528;SDS011;7866;52.280;9.500;2023-02-01T16:37:08;5.27;;;1.97;;
15528;SDS011;7866;52.280;9.500;2023-02-01T16:42:15;8.77;;;2.33;;
15528;SDS011;7866;52.280;9.500;2023-02-01T16:47:18;13.70;;;2.40;;
15528;SDS011;7866;52.280;9.500;2023-02-01T16:52:23;11.67;;;2.33;;
15528;SDS011;7866;52.280;9.500;2023-02-01T16:57:27;6.77;;;2.00;;
15528;SDS011;7866;52.280;9.500;2023-02-01T17:02:29;5.50;;;2.47;;
15528;SDS011;7866;52.280;9.500;2023-02-01T17:07:31;6.40;;;2.40;;
15528;SDS011;7866;52.280;9.500;2023-02-01T17:12:34;13.40;;;2.57;;
15528;SDS011;7866;52.280;9.500;2023-02-01T17:17:36;9.80;;;2.80;;
15528;SDS011;7866;52.280;9.500;2023-02-01T17:22:40;11.70;;;3.00;;
15528;SDS011;7866;52.280;9.500;2023-02-01T17:27:43;13.33;;;2.90;;
15528;SDS011;7866;52.280;9.500;2023-02-01T17:32:45;12.33;;;3.33;;
15528;SDS011;7866;52.280;9.500;2023-02-01T17:37:47;9.57;;;3.43;;
15528;SDS011;7866;52.280;9.500;2023-02-01T17:42:51;17.90;;;6.07;;
15528;SDS011;7866;52.280;9.500;2023-02-01T17:47:56;14.93;;;3.30;;
15528;SDS011;7866;52.280;9.500;2023-02-01T17:52:58;10.87;;;3.13;;
15528;SDS011;7866;52.280;9.500;2023-02-01T17:58:01;13.57;;;4.30;;
15528;SDS011;7866;52.280;9.500;2023-02-01T18:03:02;13.40;;;3.20;;
15528;SDS011;7866;52.280;9.500;2023-02-01T18:08:04;12.30;;;3.40;;
15528;SDS011;7866;52.280;9.500;2023-02-01T18:13:08;9.63;;;3.43;;
15528;SDS011;7866;52.280;9.500;2023-02-01T18:18:12;10.70;;;3.00;;
15528;SDS011;7866;52.280;9.500;2023-02-01T18:23:14;7.60;;;2.63;;
15528;SDS011;7866;52.280;9.500;2023-02-01T18:28:19;10.57;;;3.37;;
15528;SDS011;7866;52.280;9.500;2023-02-01T18:33:20;9.33;;;2.83;;
15528;SDS011;7866;52.280;9.500;2023-02-01T18:38:22;12.47;;;2.67;;
15528;SDS011;7866;52.280;9.500;2023-02-01T18:43:26;8.20;;;2.63;;
15528;SDS011;7866;52.280;9.500;2023-02-01T18:48:27;9.17;;;3.40;;
15528;SDS011;7866;52.280;9.500;2023-02-01T18:53:30;13.03;;;3.03;;
15528;SDS011;7866;52.280;9.500;2023-02-01T18:58:33;10.67;;;3.00;;
15528;SDS011;7866;52.280;9.500;2023-02-01T19:03:34;9.97;;;2.83;;
15528;SDS011;7866;52.280;9.500;2023-02-01T19:08:37;15.10;;;3.17;;
15528;SDS011;7866;52.280;9.500;2023-02-01T19:13:40;10.60;;;2.70;;
15528;SDS011;7866;52.280;9.500;2023-02-01T19:18:42;13.00;;;2.73;;
15528;SDS011;7866;52.280;9.500;2023-02-01T19:23:44;12.27;;;3.10;;
15528;SDS011;7866;52.280;9.500;2023-02-01T19:28:47;10.80;;;2.90;;
15528;SDS011;7866;52.280;9.500;2023-02-01T19:33:48;11.17;;;3.17;;
15528;SDS011;7866;52.280;9.500;2023-02-01T19:38:50;9.27;;;2.63;;
15528;SDS011;7866;52.280;9.500;2023-02-01T19:43:53;14.33;;;2.87;;
15528;SDS011;7866;52.280;9.500;2023-02-01T19:48:54;10.23;;;2.40;;
15528;SDS011;7866;52.280;9.500;2023-02-01T19:53:56;9.67;;;2.73;;
15528;SDS011;7866;52.280;9.500;2023-02-01T19:58:59;8.93;;;3.03;;
15528;SDS011;7866;52.280;9.500;2023-02-01T20:04:01;9.63;;;2.73;;
15528;SDS011;7866;52.280;9.500;2023-02-01T20:09:03;11.63;;;3.47;;
15528;SDS011;7866;52.280;9.500;2023-02-01T20:14:07;12.77;;;4.23;;
15528;SDS011;7866;52.280;9.500;2023-02-01T20:19:10;14.20;;;3.37;;
15528;SDS011;7866;52.280;9.500;2023-02-01T20:24:12;10.37;;;3.73;;
15528;SDS011;7866;52.280;9.500;2023-02-01T20:29:18;15.37;;;3.40;;
15528;SDS011;7866;52.280;9.500;2023-02-01T20:34:20;16.97;;;3.93;;
15528;SDS011;7866;52.280;9.500;2023-02-01T20:39:21;10.97;;;3.20;;
15528;SDS011;7866;52.280;9.500;2023-02-01T20:44:24;11.13;;;3.30;;
15528;SDS011;7866;52.280;9.500;2023-02-01T20:49:26;11.93;;;2.83;;
15528;SDS011;7866;52.280;9.500;2023-02-01T20:54:27;12.77;;;3.03;;
15528;SDS011;7866;52.280;9.500;2023-02-01T20:59:30;6.67;;;2.57;;
15528;SDS011;7866;52.280;9.500;2023-02-01T21:04:32;11.23;;;2.80;;
15528;SDS011;7866;52.280;9.500;2023-02-01T21:09:34;11.03;;;2.77;;
15528;SDS011;7866;52.280;9.500;2023-02-01T21:14:41;10.23;;;3.00;;
15528;SDS011;7866;52.280;9.500;2023-02-01T21:19:42;11.33;;;3.20;;
15528;SDS011;7866;52.280;9.500;2023-02-01T21:24:44;15.80;;;3.57;;
15528;SDS011;7866;52.280;9.500;2023-02-01T21:29:47;11.90;;;3.03;;
15528;SDS011;7866;52.280;9.500;2023-02-01T21:34:49;8.73;;;2.63;;
15528;SDS011;7866;52.280;9.500;2023-02-01T21:39:51;14.67;;;3.17;;
15528;SDS011;7866;52.280;9.500;2023-02-01T21:44:56;15.43;;;3.23;;
15528;SDS011;7866;52.280;9.500;2023-02-01T21:49:58;15.33;;;3.10;;
15528;SDS011;7866;52.280;9.500;2023-02-01T21:55:00;11.27;;;3.30;;
15528;SDS011;7866;52.280;9.500;2023-02-01T22:00:03;9.13;;;2.57;;
15528;SDS011;7866;52.280;9.500;2023-02-01T22:05:07;9.20;;;3.20;;
15528;SDS011;7866;52.280;9.500;2023-02-01T22:10:10;13.80;;;2.87;;
15528;SDS011;7866;52.280;9.500;2023-02-01T22:15:14;13.90;;;3.27;;
15528;SDS011;7866;52.280;9.500;2023-02-01T22:20:16;14.37;;;3.20;;
15528;SDS011;7866;52.280;9.500;2023-02-01T22:25:18;12.27;;;2.70;;
15528;SDS011;7866;52.280;9.500;2023-02-01T22:30:21;14.23;;;3.17;;
15528;SDS011;7866;52.280;9.500;2023-02-01T22:35:23;12.67;;;3.27;;
15528;SDS011;7866;52.280;9.500;2023-02-01T22:40:24;13.90;;;3.23;;
15528;SDS011;7866;52.280;9.500;2023-02-01T22:45:27;13.80;;;2.97;;
15528;SDS011;7866;52.280;9.500;2023-02-01T22:50:29;15.03;;;3.20;;
15528;SDS011;7866;52.280;9.500;2023-02-01T22:55:31;14.83;;;2.73;;
15528;SDS011;7866;52.280;9.500;2023-02-01T23:00:34;12.60;;;2.53;;
15528;SDS011;7866;52.280;9.500;2023-02-01T23:05:36;13.03;;;3.17;;
15528;SDS011;7866;52.280;9.500;2023-02-01T23:10:38;14.23;;;3.33;;
15528;SDS011;7866;52.280;9.500;2023-02-01T23:15:41;10.97;;;2.70;;
15528;SDS011;7866;52.280;9.500;2023-02-01T23:20:43;12.13;;;3.37;;
15528;SDS011;7866;52.280;9.500;2023-02-01T23:25:48;12.07;;;3.23;;
15528;SDS011;7866;52.280;9.500;2023-02-01T23:30:52;14.13;;;2.97;;
15528;SDS011;7866;52.280;9.500;2023-02-01T23:35:55;12.80;;;3.10;;
15528;SDS011;7866;52.280;9.500;2023-02-01T23:40:57;15.10;;;2.67;;
15528;SDS011;7866;52.280;9.500;2023-02-01T23:46:01;7.30;;;2.23;;
15528;SDS011;7866;52.280;9.500;2023-02-01T23:51:04;11.60;;;3.07;;
15528;SDS011;7866;52.280;9.500;2023-02-01T23:56:06;11.70;;;3.13;;
